ADDS TAF Board (Experimental) INFO Settings
IDs: Format: Expanded Condensed

KSAN - San Diego Intl Arpt, CA, US

Issued at 0520 UTC 26 Aug 2016
Updated at 0640 UTC 26 Aug 2016
Time0551Z 26/07Z 26/08Z 26/09Z 26/10Z 26/11Z 26/12Z 26/13Z 26/14Z 26/15Z 26/16Z 26/17Z 26/18Z 26/19Z
Type OBS PRVL PRVL PRVL PRVL PRVL PRVL PRVL PRVL PRVL PRVL PRVL PRVL PRVL
VIS 10 >6 >6 >6 >6 >6 >6 >6 >6 >6 >6 >6 >6 >6
CIG 17 17 17 17 17 17 17 17 17 17 17 17 -- --
Cover OVC OVC OVC OVC OVC OVC OVC OVC OVC OVC OVC OVC SCT SCT
FltCat MVFR MVFR MVFR MVFR MVFR MVFR MVFR MVFR MVFR MVFR MVFR MVFR VFR VFR
WX -- -- -- -- -- -- -- -- -- -- -- -- -- --
WDir 310 VRB VRB VRB VRB VRB VRB VRB VRB VRB VRB VRB 280 280
WSpd 5 4 4 4 4 4 4 4 4 4 4 4 10 10
WGst -- -- -- -- -- -- -- -- -- -- -- -- -- --
R09/27
XWnd 2 VRB VRB VRB VRB VRB VRB VRB VRB VRB VRB VRB -1 -1
HWnd -5 VRB VRB VRB VRB VRB VRB VRB VRB VRB VRB VRB -10 -10

Raw TAF
KSAN 260520Z 2606/2712 VRB04KT P6SM OVC017
  FM261800 28010KT P6SM SCT020
  FM270200 30005KT P6SM SCT018
  FM270600 VRB04KT P6SM OVC018


Raw METAR
KSAN 260551Z 31005KT 10SM OVC017 19/15 A2995 RMK AO2 SLP141 T01940150 10217 20189 50007
KSAN 260451Z 28003KT 10SM BKN017 19/15 A2995 RMK AO2 SLP141 T01940150
KSAN 260351Z 28005KT 10SM BKN017 19/15 A2994 RMK AO2 SLP139 T01940150
KSAN 260344Z 28005KT 10SM BKN017 19/15 A2994 RMK AO2 T01940150

METAR Board
Radar Display
Forecast Discussion

TAF Board Legend

Potential Impact
Threat None Slight Moderate High
Visibility (sm) ≥5.1 5.1>X≥3 3>X≥1 <1
Ceiling (100 ft) ≥30.1 30.1>X≥10 10>X≥5 <5
Wind Speed (kt) <10 10≤X<20 20≤X<30 ≥30
Wind Gust (kt) <15 15≤X<25 25≤X<35 ≥35
Weather No Wx Reported VCTS,-TS,-FZRA,SN TS,FZRA +TS,+FZRA,+SN